X  Κλείσε Στοιχεία αεροπορικών μετεωρολογικών δεδομένων METAR     LGRX Patras Araxos Agamemnon Airport
Θερμοκρασία
3°C Θερμοκρασία
3°C Σημείο δρόσου
100% Σχετ. υγρασία



Άνεμος
0 ΧΛΜ/Ω
0 ΜΑΩ
0 Μ/Δ
0 ΚΟΜΒΟΙ



Νηνεμία
Β
Τρέχουσες συνθήκες

Αίθριος Αίθριος
Πίεση 1022.92 (hPa) - 30.21 (inHg)
Ορατότητα 6.2 (μίλι) - 10 (χλμ)
Aεροδρόμιο
Κωδικός αεροδρομίου LGRX

Τοποθεσία: Patras Araxos Agamemnon Airport
Απόσταση: 30 (χλμ)

Metar:
LGRX 030050Z 00000KT CAVOK 03/03 Q1023

Ώρα: 03-02-2023 02:50 EET